createdAt,value
2022-10-16T00:01:21.585Z,96097.13
2022-10-16T00:04:07.872Z,96092.34
2022-10-16T00:06:53.747Z,96096.13
2022-10-16T00:09:39.429Z,96089.75
2022-10-16T00:12:25.369Z,96103.19
2022-10-16T00:15:11.394Z,96098.06
2022-10-16T00:17:57.113Z,96093.81
2022-10-16T00:20:42.836Z,96111.84
2022-10-16T00:23:28.664Z,96110.25
2022-10-16T00:26:16.290Z,96103.81
2022-10-16T00:29:02.404Z,96108.63
2022-10-16T00:31:48.564Z,96103.25
2022-10-16T00:34:34.378Z,96110.25
2022-10-16T00:37:20.096Z,96112.94
2022-10-16T00:40:06.350Z,96105.94
2022-10-16T00:42:52.029Z,96104.91
2022-10-16T00:45:37.736Z,96098.97
2022-10-16T00:48:23.804Z,96103.00
2022-10-16T00:51:09.542Z,96109.19
2022-10-16T00:53:56.395Z,96104.38
2022-10-16T00:56:43.336Z,96101.16
2022-10-16T00:59:38.802Z,96099.78
2022-10-16T01:02:24.630Z,96100.34
2022-10-16T01:05:10.700Z,96105.19
2022-10-16T01:07:56.709Z,96101.09
2022-10-16T01:10:50.778Z,96107.59
2022-10-16T01:13:42.682Z,96115.69
2022-10-16T01:16:50.894Z,96111.38
2022-10-16T01:20:07.697Z,96101.50
2022-10-16T01:23:08.248Z,96103.34
2022-10-16T01:26:23.067Z,96115.50
2022-10-16T01:29:16.477Z,96118.50
2022-10-16T01:32:08.382Z,96118.03
2022-10-16T01:35:01.851Z,96121.22
2022-10-16T01:38:00.413Z,96129.31
2022-10-16T01:40:50.893Z,96121.81
2022-10-16T01:43:47.787Z,96116.72
2022-10-16T01:46:37.442Z,96123.19
2022-10-16T01:49:27.299Z,96124.53
2022-10-16T01:52:21.192Z,96125.09
2022-10-16T01:55:09.722Z,96132.69
2022-10-16T01:57:56.318Z,96132.16
2022-10-16T02:00:45.577Z,96125.78
2022-10-16T02:03:33.225Z,96129.56
2022-10-16T02:06:19.079Z,96134.66
2022-10-16T02:09:04.732Z,96131.72
2022-10-16T02:11:53.785Z,96122.84
2022-10-16T02:14:40.531Z,96133.38
2022-10-16T02:17:26.976Z,96141.72
2022-10-16T02:20:12.892Z,96138.53
2022-10-16T02:22:59.431Z,96147.16
2022-10-16T02:25:46.685Z,96152.28
2022-10-16T02:28:54.483Z,96151.22
2022-10-16T02:31:44.541Z,96138.59
2022-10-16T02:34:31.668Z,96142.63
2022-10-16T02:37:18.883Z,96135.72
2022-10-16T02:40:06.120Z,96153.97
2022-10-16T02:42:53.892Z,96152.91
2022-10-16T02:45:40.224Z,96161.28
2022-10-16T02:48:26.234Z,96154.84
2022-10-16T02:51:11.784Z,96147.59
2022-10-16T02:53:57.485Z,96147.06
2022-10-16T02:56:43.142Z,96148.72
2022-10-16T02:59:28.750Z,96150.34
2022-10-16T03:02:14.989Z,96148.44
2022-10-16T03:05:00.565Z,96152.44
2022-10-16T03:07:46.364Z,96153.56
2022-10-16T03:10:32.874Z,96154.63
2022-10-16T03:13:21.365Z,96155.72
2022-10-16T03:16:07.141Z,96159.50
2022-10-16T03:18:55.218Z,96156.28
2022-10-16T03:21:41.124Z,96135.88
2022-10-16T03:24:28.551Z,96157.34
2022-10-16T03:27:16.404Z,96164.06
2022-10-16T03:30:09.616Z,96160.03
2022-10-16T03:32:55.347Z,96167.03
2022-10-16T03:35:41.192Z,96164.91
2022-10-16T03:38:27.091Z,96171.09
2022-10-16T03:41:12.939Z,96180.78
2022-10-16T03:43:58.732Z,96162.78
2022-10-16T03:46:44.501Z,96180.00
2022-10-16T03:49:30.067Z,96171.38
2022-10-16T03:55:10.208Z,96178.16
2022-10-16T03:57:56.330Z,96172.75
2022-10-16T04:00:43.890Z,96172.75
2022-10-16T04:03:30.055Z,96177.34
2022-10-16T04:06:15.801Z,96179.78
2022-10-16T04:09:01.477Z,96184.88
2022-10-16T04:11:47.187Z,96190.28
2022-10-16T04:14:32.798Z,96176.28
2022-10-16T04:17:18.735Z,96184.06
2022-10-16T04:20:05.349Z,96184.88
2022-10-16T04:22:51.115Z,96170.88
2022-10-16T04:25:36.996Z,96186.50
2022-10-16T04:28:22.823Z,96182.72
2022-10-16T04:31:08.877Z,96185.69
2022-10-16T04:33:54.525Z,96180.84
2022-10-16T04:36:40.150Z,96176.28
2022-10-16T04:39:25.943Z,96181.13
2022-10-16T04:42:12.035Z,96178.69
2022-10-16T04:44:57.938Z,96181.66
2022-10-16T04:47:43.582Z,96187.34
2022-10-16T04:50:29.374Z,96190.31
2022-10-16T04:53:25.040Z,96202.19
2022-10-16T04:56:10.997Z,96188.44
2022-10-16T04:58:56.674Z,96186.59
2022-10-16T05:01:42.403Z,96194.66
2022-10-16T05:04:28.369Z,96201.66
2022-10-16T05:07:14.198Z,96203.81
2022-10-16T05:09:59.993Z,96204.34
2022-10-16T05:12:45.776Z,96206.50
2022-10-16T05:15:32.086Z,96206.22
2022-10-16T05:18:18.377Z,96202.19
2022-10-16T05:21:04.169Z,96202.19
2022-10-16T05:23:50.173Z,96188.19
2022-10-16T05:26:36.132Z,96200.28
2022-10-16T05:29:22.354Z,96197.88
2022-10-16T05:32:08.072Z,96209.41
2022-10-16T05:34:53.871Z,96211.81
2022-10-16T05:37:39.511Z,96226.31
2022-10-16T05:40:25.247Z,96229.03
2022-10-16T05:43:11.319Z,96233.00
2022-10-16T05:46:04.858Z,96245.66
2022-10-16T05:48:55.945Z,96241.88
2022-10-16T05:51:42.589Z,96250.47
2022-10-16T05:54:28.850Z,96242.91
2022-10-16T05:57:18.485Z,96240.22
2022-10-16T06:00:12.654Z,96235.09
2022-10-16T06:03:02.442Z,96248.50
2022-10-16T06:05:50.180Z,96260.34
2022-10-16T06:08:36.275Z,96268.63
2022-10-16T06:11:24.336Z,96259.22
2022-10-16T06:14:10.611Z,96267.53
2022-10-16T06:16:56.806Z,96272.59
2022-10-16T06:19:44.166Z,96263.97
2022-10-16T06:22:30.471Z,96269.09
2022-10-16T06:25:17.879Z,96276.59
2022-10-16T06:28:05.219Z,96278.19
2022-10-16T06:31:04.093Z,96289.94
2022-10-16T06:33:53.030Z,96291.00
2022-10-16T06:36:39.617Z,96288.25
2022-10-16T06:39:25.650Z,96296.56
2022-10-16T06:42:11.580Z,96298.91
2022-10-16T06:44:57.515Z,96304.28
2022-10-16T06:47:43.421Z,96305.91
2022-10-16T06:50:30.299Z,96318.22
2022-10-16T06:53:16.347Z,96311.13
2022-10-16T06:56:13.239Z,96320.22
2022-10-16T06:58:59.962Z,96319.84
2022-10-16T07:01:46.195Z,96309.75
2022-10-16T07:04:32.222Z,96312.88
2022-10-16T07:07:18.453Z,96309.84
2022-10-16T07:10:04.491Z,96321.09
2022-10-16T07:12:50.119Z,96314.31
2022-10-16T07:15:35.919Z,96329.84
2022-10-16T07:18:22.080Z,96321.38
2022-10-16T07:21:09.633Z,96314.28
2022-10-16T07:24:00.299Z,96321.56
2022-10-16T07:26:47.110Z,96310.56
2022-10-16T07:29:33.406Z,96308.69
2022-10-16T07:32:19.401Z,96323.28
2022-10-16T07:35:05.688Z,96325.47
2022-10-16T07:37:51.621Z,96330.88
2022-10-16T07:40:37.401Z,96330.88
2022-10-16T07:43:24.500Z,96337.91
2022-10-16T07:46:10.734Z,96319.00
2022-10-16T07:48:56.949Z,96325.47
2022-10-16T07:51:42.715Z,96335.13
2022-10-16T07:54:28.482Z,96314.66
2022-10-16T07:57:20.127Z,96341.00
2022-10-16T08:00:06.381Z,96337.22
2022-10-16T08:03:01.404Z,96334.94
2022-10-16T08:05:47.237Z,96338.69
2022-10-16T08:08:33.286Z,96343.97
2022-10-16T08:11:19.303Z,96345.72
2022-10-16T08:14:04.933Z,96342.88
2022-10-16T08:16:50.706Z,96348.97
2022-10-16T08:19:36.482Z,96347.72
2022-10-16T08:22:22.851Z,96338.63
2022-10-16T08:25:08.953Z,96341.41
2022-10-16T08:27:54.903Z,96327.47
2022-10-16T08:30:41.134Z,96333.50
2022-10-16T08:33:27.187Z,96317.13
2022-10-16T08:36:13.051Z,96334.88
2022-10-16T08:38:58.758Z,96335.72
2022-10-16T08:42:16.784Z,96344.16
2022-10-16T08:45:24.742Z,96347.19
2022-10-16T08:48:19.801Z,96346.66
2022-10-16T08:51:05.728Z,96343.56
2022-10-16T08:54:06.498Z,96349.00
2022-10-16T08:56:52.438Z,96340.94
2022-10-16T08:59:38.149Z,96338.56
2022-10-16T09:02:39.345Z,96342.34
2022-10-16T09:05:50.695Z,96342.31
2022-10-16T09:08:47.103Z,96332.22
2022-10-16T09:12:10.348Z,96342.09
2022-10-16T09:15:17.697Z,96337.63
2022-10-16T09:18:16.172Z,96332.78
2022-10-16T09:21:17.239Z,96341.09
2022-10-16T09:24:12.908Z,96328.69
2022-10-16T09:26:59.021Z,96333.09
2022-10-16T09:29:45.112Z,96331.88
2022-10-16T09:32:30.940Z,96332.09
2022-10-16T09:35:21.116Z,96334.53
2022-10-16T09:38:07.954Z,96336.81
2022-10-16T09:40:58.994Z,96339.44
2022-10-16T09:44:03.185Z,96325.19
2022-10-16T09:46:49.111Z,96324.06
2022-10-16T09:49:35.194Z,96323.13
2022-10-16T09:52:21.479Z,96327.28
2022-10-16T09:55:25.705Z,96325.63
2022-10-16T09:58:15.211Z,96325.16
2022-10-16T10:01:01.094Z,96329.44
2022-10-16T10:03:48.755Z,96332.56
2022-10-16T10:06:40.500Z,96337.66
2022-10-16T10:09:29.057Z,96325.16
2022-10-16T10:12:28.767Z,96327.78
2022-10-16T10:15:22.565Z,96331.72
2022-10-16T10:18:24.901Z,96316.00
2022-10-16T10:21:15.008Z,96316.78
2022-10-16T10:24:01.584Z,96319.81
2022-10-16T10:26:58.704Z,96304.19
2022-10-16T10:30:02.759Z,96314.28
2022-10-16T10:33:27.183Z,96307.13
2022-10-16T10:36:29.835Z,96304.97
2022-10-16T10:39:48.110Z,96306.59
2022-10-16T10:42:36.766Z,96307.81
2022-10-16T10:45:29.145Z,96293.94
2022-10-16T10:51:48.583Z,96290.56
2022-10-16T10:55:02.460Z,96290.91
2022-10-16T10:58:32.303Z,96285.63
2022-10-16T11:01:35.441Z,96280.66
2022-10-16T11:04:42.497Z,96280.03
2022-10-16T11:07:36.306Z,96282.66
2022-10-16T11:10:25.853Z,96274.41
2022-10-16T11:13:35.170Z,96275.28
2022-10-16T11:16:31.301Z,96273.44
2022-10-16T11:19:35.971Z,96268.28
2022-10-16T11:22:31.315Z,96267.91
2022-10-16T11:25:29.219Z,96257.28
2022-10-16T11:28:21.920Z,96253.72
2022-10-16T11:31:28.027Z,96251.00
2022-10-16T11:34:19.198Z,96253.28
2022-10-16T11:37:20.946Z,96250.25
2022-10-16T11:40:18.856Z,96244.19
2022-10-16T11:43:16.180Z,96246.00
2022-10-16T11:46:12.476Z,96246.59
2022-10-16T11:49:10.303Z,96240.72
2022-10-16T11:52:14.900Z,96243.84
2022-10-16T11:55:05.687Z,96239.84
2022-10-16T11:58:33.595Z,96237.69
2022-10-16T12:01:31.038Z,96238.22
2022-10-16T12:04:57.570Z,96235.88
2022-10-16T12:08:10.348Z,96234.56
2022-10-16T12:11:08.462Z,96230.97
2022-10-16T12:14:12.878Z,96233.03
2022-10-16T12:17:01.083Z,96226.03
2022-10-16T12:20:00.620Z,96235.00
2022-10-16T12:22:55.641Z,96232.06
2022-10-16T12:25:47.579Z,96230.44
2022-10-16T12:28:34.397Z,96230.81
2022-10-16T12:31:20.528Z,96227.56
2022-10-16T12:34:06.839Z,96224.84
2022-10-16T12:36:53.559Z,96222.09
2022-10-16T12:39:39.781Z,96216.81
2022-10-16T12:42:35.799Z,96225.47
2022-10-16T12:45:27.741Z,96220.03
2022-10-16T12:48:29.187Z,96216.66
2022-10-16T12:51:28.827Z,96214.09
2022-10-16T12:54:22.105Z,96209.50
2022-10-16T12:57:35.499Z,96208.97
2022-10-16T13:00:29.653Z,96214.53
2022-10-16T13:03:31.188Z,96212.09
2022-10-16T13:06:58.674Z,96213.28
2022-10-16T13:09:59.971Z,96211.78
2022-10-16T13:13:04.293Z,96215.66
2022-10-16T13:16:19.406Z,96219.75
2022-10-16T13:19:45.355Z,96218.97
2022-10-16T13:22:35.019Z,96220.03
2022-10-16T13:25:51.879Z,96212.25
2022-10-16T13:28:39.406Z,96207.94
2022-10-16T13:31:25.931Z,96211.25
2022-10-16T13:34:20.250Z,96225.44
2022-10-16T13:37:20.926Z,96216.97
2022-10-16T13:40:20.991Z,96210.75
2022-10-16T13:43:06.702Z,96204.50
2022-10-16T13:45:57.804Z,96201.22
2022-10-16T13:48:43.425Z,96209.19
2022-10-16T13:51:30.181Z,96206.94
2022-10-16T13:54:15.998Z,96212.28
2022-10-16T13:57:26.377Z,96210.63
2022-10-16T14:00:31.096Z,96208.06
2022-10-16T14:03:17.728Z,96207.06
2022-10-16T14:06:05.341Z,96216.97
2022-10-16T14:09:12.764Z,96216.28
2022-10-16T14:12:03.724Z,96220.06
2022-10-16T14:14:52.032Z,96214.41
2022-10-16T14:17:44.983Z,96221.69
2022-10-16T14:20:33.433Z,96218.97
2022-10-16T14:23:31.059Z,96221.88
2022-10-16T14:26:20.760Z,96214.03
2022-10-16T14:29:15.626Z,96215.47
2022-10-16T14:32:06.535Z,96202.25
2022-10-16T14:34:55.640Z,96204.81
2022-10-16T14:37:41.551Z,96213.03
2022-10-16T14:40:31.335Z,96203.53
2022-10-16T14:43:30.666Z,96209.25
2022-10-16T14:49:11.487Z,96220.31
2022-10-16T14:51:57.236Z,96219.34
2022-10-16T14:54:43.000Z,96224.59
2022-10-16T14:57:29.756Z,96225.06
2022-10-16T15:00:24.872Z,96231.88
2022-10-16T15:03:11.083Z,96233.81
2022-10-16T15:05:57.150Z,96241.81
2022-10-16T15:08:43.194Z,96229.94
2022-10-16T15:11:28.872Z,96234.34
2022-10-16T15:17:05.695Z,96231.09
2022-10-16T15:19:52.320Z,96235.41
2022-10-16T15:22:38.433Z,96236.63
2022-10-16T15:25:33.025Z,96232.28
2022-10-16T15:28:19.917Z,96234.25
2022-10-16T15:31:06.230Z,96229.41
2022-10-16T15:33:57.009Z,96247.22
2022-10-16T15:36:43.025Z,96248.31
2022-10-16T15:39:28.658Z,96256.94
2022-10-16T15:42:14.756Z,96262.84
2022-10-16T15:45:00.717Z,96264.78
2022-10-16T15:47:46.457Z,96260.78
2022-10-16T15:50:32.942Z,96263.16
2022-10-16T15:53:19.090Z,96263.50
2022-10-16T15:56:06.461Z,96263.81
2022-10-16T15:58:56.189Z,96280.44
2022-10-16T16:01:42.372Z,96281.53
2022-10-16T16:04:46.480Z,96275.28
2022-10-16T16:07:35.318Z,96268.50
2022-10-16T16:10:22.068Z,96281.91
2022-10-16T16:13:08.062Z,96287.50
2022-10-16T16:15:54.117Z,96286.97
2022-10-16T16:18:40.652Z,96296.09
2022-10-16T16:21:26.703Z,96296.09
2022-10-16T16:24:12.860Z,96292.06
2022-10-16T16:26:58.601Z,96303.63
2022-10-16T16:29:44.661Z,96318.19
2022-10-16T16:32:30.924Z,96319.75
2022-10-16T16:35:17.192Z,96323.75
2022-10-16T16:38:03.381Z,96324.06
2022-10-16T16:40:52.849Z,96334.75
2022-10-16T16:43:42.247Z,96335.97
2022-10-16T16:46:28.093Z,96350.84
2022-10-16T16:49:15.894Z,96350.13
2022-10-16T16:52:01.658Z,96355.69
2022-10-16T16:54:52.777Z,96363.50
2022-10-16T16:57:39.165Z,96364.56
2022-10-16T17:00:24.962Z,96364.25
2022-10-16T17:03:11.657Z,96372.19
2022-10-16T17:06:05.569Z,96370.50
2022-10-16T17:08:51.678Z,96382.78
2022-10-16T17:11:37.298Z,96377.66
2022-10-16T17:14:23.483Z,96378.84
2022-10-16T17:17:09.292Z,96396.53
2022-10-16T17:19:54.926Z,96392.22
2022-10-16T17:22:40.802Z,96386.16
2022-10-16T17:25:28.444Z,96399.69
2022-10-16T17:28:15.525Z,96397.16
2022-10-16T17:31:15.824Z,96414.97
2022-10-16T17:34:02.486Z,96423.19
2022-10-16T17:36:48.361Z,96411.81
2022-10-16T17:39:34.521Z,96416.13
2022-10-16T17:42:20.401Z,96418.03
2022-10-16T17:45:07.211Z,96416.13
2022-10-16T17:47:53.229Z,96426.56
2022-10-16T17:50:43.412Z,96422.56
2022-10-16T17:53:29.097Z,96437.97
2022-10-16T17:56:15.223Z,96434.41
2022-10-16T17:59:02.310Z,96439.53
2022-10-16T18:01:48.290Z,96448.34
2022-10-16T18:04:34.121Z,96448.03
2022-10-16T18:07:20.243Z,96439.53
2022-10-16T18:10:11.647Z,96447.84
2022-10-16T18:12:58.024Z,96456.19
2022-10-16T18:15:44.073Z,96448.78
2022-10-16T18:18:30.509Z,96451.66
2022-10-16T18:21:18.460Z,96461.56
2022-10-16T18:24:04.552Z,96466.69
2022-10-16T18:26:52.419Z,96478.00
2022-10-16T18:29:38.715Z,96467.56
2022-10-16T18:32:25.054Z,96464.81
2022-10-16T18:35:10.908Z,96469.56
2022-10-16T18:38:00.607Z,96483.69
2022-10-16T18:40:47.245Z,96478.34
2022-10-16T18:43:34.231Z,96481.22
2022-10-16T18:46:22.055Z,96484.56
2022-10-16T18:49:08.187Z,96469.25
2022-10-16T18:51:56.843Z,96485.59
2022-10-16T18:54:42.613Z,96484.59
2022-10-16T18:57:30.415Z,96487.47
2022-10-16T19:00:16.862Z,96498.97
2022-10-16T19:03:03.012Z,96497.97
2022-10-16T19:05:49.003Z,96511.72
2022-10-16T19:08:38.843Z,96512.13
2022-10-16T19:11:26.398Z,96513.38
2022-10-16T19:14:14.031Z,96516.19
2022-10-16T19:17:00.109Z,96513.41
2022-10-16T19:19:46.351Z,96523.69
2022-10-16T19:22:51.858Z,96524.91
2022-10-16T19:25:38.663Z,96534.19
2022-10-16T19:28:25.003Z,96539.19
2022-10-16T19:31:13.519Z,96530.88
2022-10-16T19:34:00.942Z,96544.75
2022-10-16T19:36:46.947Z,96540.03
2022-10-16T19:39:33.026Z,96547.72
2022-10-16T19:42:19.230Z,96545.09
2022-10-16T19:45:05.669Z,96551.63
2022-10-16T19:47:51.467Z,96564.19
2022-10-16T19:50:37.273Z,96560.59
2022-10-16T19:53:23.335Z,96571.28
2022-10-16T19:56:23.445Z,96571.66
2022-10-16T19:59:12.821Z,96569.66
2022-10-16T20:01:58.767Z,96574.09
2022-10-16T20:04:44.700Z,96581.13
2022-10-16T20:07:32.701Z,96568.84
2022-10-16T20:10:20.957Z,96569.25
2022-10-16T20:13:08.455Z,96592.19
2022-10-16T20:15:54.656Z,96589.59
2022-10-16T20:18:41.244Z,96583.72
2022-10-16T20:21:30.487Z,96600.22
2022-10-16T20:24:16.894Z,96600.03
2022-10-16T20:27:03.158Z,96595.00
2022-10-16T20:29:49.429Z,96603.13
2022-10-16T20:32:35.365Z,96608.34
2022-10-16T20:35:21.143Z,96595.06
2022-10-16T20:38:07.377Z,96603.41
2022-10-16T20:40:53.775Z,96615.06
2022-10-16T20:46:33.954Z,96617.88
2022-10-16T20:49:35.897Z,96608.75
2022-10-16T20:52:27.077Z,96616.88
2022-10-16T20:55:13.191Z,96624.03
2022-10-16T20:57:59.195Z,96627.91
2022-10-16T21:00:46.819Z,96631.25
2022-10-16T21:03:32.653Z,96633.00
2022-10-16T21:06:18.573Z,96634.69
2022-10-16T21:09:06.723Z,96635.38
2022-10-16T21:11:52.500Z,96633.22
2022-10-16T21:14:42.307Z,96629.06
2022-10-16T21:17:33.500Z,96636.44
2022-10-16T21:20:19.539Z,96637.53
2022-10-16T21:23:05.179Z,96643.84
2022-10-16T21:25:51.151Z,96646.06
2022-10-16T21:28:38.195Z,96636.38
2022-10-16T21:31:24.241Z,96635.34
2022-10-16T21:34:10.477Z,96649.41
2022-10-16T21:36:56.466Z,96635.91
2022-10-16T21:39:42.206Z,96640.78
2022-10-16T21:42:28.435Z,96644.66
2022-10-16T21:45:14.752Z,96644.34
2022-10-16T21:48:00.907Z,96647.38
2022-10-16T21:50:49.915Z,96654.16
2022-10-16T21:53:35.559Z,96660.41
2022-10-16T21:56:21.423Z,96664.22
2022-10-16T21:59:07.375Z,96661.53
2022-10-16T22:01:54.147Z,96672.91
2022-10-16T22:04:40.109Z,96670.78
2022-10-16T22:07:26.106Z,96673.00
2022-10-16T22:10:12.138Z,96666.53
2022-10-16T22:12:58.239Z,96666.28
2022-10-16T22:15:53.389Z,96673.09
2022-10-16T22:18:39.875Z,96674.50
2022-10-16T22:21:28.511Z,96665.38
2022-10-16T22:24:15.651Z,96678.06
2022-10-16T22:27:01.443Z,96685.66
2022-10-16T22:29:51.192Z,96675.97
2022-10-16T22:32:36.921Z,96687.84
2022-10-16T22:35:22.901Z,96690.06
2022-10-16T22:38:08.735Z,96689.81
2022-10-16T22:40:54.562Z,96695.75
2022-10-16T22:43:45.430Z,96698.47
2022-10-16T22:46:31.698Z,96697.97
2022-10-16T22:49:20.010Z,96712.31
2022-10-16T22:52:05.708Z,96703.38
2022-10-16T22:54:51.415Z,96697.41
2022-10-16T22:57:37.159Z,96695.00
2022-10-16T23:00:23.425Z,96697.19
2022-10-16T23:03:09.106Z,96688.56
2022-10-16T23:05:55.035Z,96689.13
2022-10-16T23:08:41.234Z,96691.63
2022-10-16T23:11:28.750Z,96700.84
2022-10-16T23:14:14.598Z,96700.59
2022-10-16T23:17:00.352Z,96696.84
2022-10-16T23:19:46.290Z,96691.75
2022-10-16T23:22:32.312Z,96695.28
2022-10-16T23:25:18.127Z,96694.28
2022-10-16T23:28:04.711Z,96698.59
2022-10-16T23:30:50.582Z,96699.16
2022-10-16T23:33:37.375Z,96698.09
2022-10-16T23:36:24.067Z,96710.09
2022-10-16T23:39:09.952Z,96704.19
2022-10-16T23:41:55.610Z,96708.88
2022-10-16T23:44:41.361Z,96703.78
2022-10-16T23:47:27.265Z,96706.03
2022-10-16T23:50:13.303Z,96706.06
2022-10-16T23:52:58.985Z,96729.06
2022-10-16T23:55:44.642Z,96722.59
2022-10-16T23:58:30.655Z,96722.31
